Private Wetterstation Sandau
Wetterdaten: Samstag, 24.11.2012
Datum Zeit Temp. A. Feuchte A. Luftdruck Regen Wind Richtung Richtung Taupunkt Windchill
24.11.2012 00:01 5,5 C 93 % 1019,3 hPa 0,0 l/m 10,8 km/h (2 Bft) SW 225 4,5 C 3,1 C
24.11.2012 00:06 5,5 C 93 % 1019,5 hPa 0,0 l/m 7,6 km/h (2 Bft) S-SO 157 4,5 C 3,8 C
24.11.2012 00:11 5,6 C 93 % 1019,2 hPa 0,0 l/m 5,8 km/h (2 Bft) S 180 4,6 C 4,5 C
24.11.2012 00:16 5,6 C 93 % 1019,3 hPa 0,0 l/m 5,0 km/h (1 Bft) S-SW 202 4,6 C 4,8 C
24.11.2012 00:21 5,6 C 93 % 1019,4 hPa 0,0 l/m 6,1 km/h (2 Bft) S-SW 202 4,6 C 4,4 C
24.11.2012 00:26 5,6 C 93 % 1019,4 hPa 0,0 l/m 4,7 km/h (1 Bft) S-SW 202 4,6 C 4,9 C
24.11.2012 00:31 5,6 C 93 % 1019,4 hPa 0,0 l/m 7,6 km/h (2 Bft) SW 225 4,6 C 3,9 C
24.11.2012 00:36 5,6 C 93 % 1019,4 hPa 0,0 l/m 4,7 km/h (1 Bft) SW 225 4,6 C 4,9 C
24.11.2012 00:41 5,6 C 93 % 1019,3 hPa 0,0 l/m 2,2 km/h (1 Bft) SW 225 4,6 C 5,6 C
24.11.2012 00:46 5,6 C 93 % 1019,4 hPa 0,0 l/m 3,2 km/h (1 Bft) SW 225 4,6 C 5,6 C
24.11.2012 00:51 5,6 C 93 % 1019,4 hPa 0,0 l/m 2,9 km/h (1 Bft) S-SO 157 4,6 C 5,6 C
24.11.2012 00:56 5,6 C 93 % 1019,3 hPa 0,0 l/m 0,0 km/h (0 Bft) S-SW 202 4,6 C 5,6 C
24.11.2012 01:01 5,7 C 93 % 1019,3 hPa 0,0 l/m 0,0 km/h (0 Bft) S-SW 202 4,7 C 5,7 C
24.11.2012 01:06 5,7 C 93 % 1019,3 hPa 0,0 l/m 2,9 km/h (1 Bft) S 180 4,7 C 5,7 C
24.11.2012 01:11 5,7 C 93 % 1019,5 hPa 0,0 l/m 3,2 km/h (1 Bft) W-SW 247 4,7 C 5,7 C
24.11.2012 01:16 5,8 C 93 % 1019,3 hPa 0,0 l/m 2,5 km/h (1 Bft) SW 225 4,8 C 5,8 C
24.11.2012 01:21 5,8 C 93 % 1019,3 hPa 0,0 l/m 1,4 km/h (1 Bft) SW 225 4,8 C 5,8 C
24.11.2012 01:26 5,8 C 93 % 1019,4 hPa 0,0 l/m 3,2 km/h (1 Bft) SW 225 4,8 C 5,8 C
24.11.2012 01:31 5,8 C 93 % 1019,4 hPa 0,0 l/m 2,9 km/h (1 Bft) SW 225 4,8 C 5,8 C
24.11.2012 01:36 5,8 C 93 % 1019,4 hPa 0,0 l/m 3,2 km/h (1 Bft) W-SW 247 4,8 C 5,8 C
24.11.2012 01:41 5,8 C 93 % 1019,5 hPa 0,0 l/m 2,2 km/h (1 Bft) S-SW 202 4,8 C 5,8 C
24.11.2012 01:46 5,8 C 93 % 1019,6 hPa 0,0 l/m 4,7 km/h (1 Bft) SW 225 4,8 C 5,1 C
24.11.2012 01:51 5,8 C 93 % 1019,6 hPa 0,0 l/m 3,2 km/h (1 Bft) S-SW 202 4,8 C 5,8 C
24.11.2012 01:56 5,8 C 93 % 1019,5 hPa 0,0 l/m 3,2 km/h (1 Bft) S 180 4,8 C 5,8 C
24.11.2012 02:01 5,8 C 93 % 1019,3 hPa 0,0 l/m 4,0 km/h (1 Bft) SW 225 4,8 C 5,8 C
24.11.2012 02:06 5,8 C 93 % 1019,5 hPa 0,0 l/m 4,3 km/h (1 Bft) W 270 4,8 C 5,8 C
24.11.2012 02:11 5,9 C 93 % 1019,6 hPa 0,0 l/m 2,2 km/h (1 Bft) SW 225 4,9 C 5,9 C
24.11.2012 02:16 5,9 C 93 % 1019,6 hPa 0,0 l/m 5,4 km/h (1 Bft) W-SW 247 4,9 C 5,0 C
24.11.2012 02:21 5,9 C 93 % 1019,7 hPa 0,0 l/m 4,3 km/h (1 Bft) S-SW 202 4,9 C 5,9 C
24.11.2012 02:26 5,9 C 93 % 1019,6 hPa 0,0 l/m 2,9 km/h (1 Bft) S-SW 202 4,9 C 5,9 C
24.11.2012 02:31 5,9 C 93 % 1019,7 hPa 0,0 l/m 2,2 km/h (1 Bft) S-SW 202 4,9 C 5,9 C
24.11.2012 02:36 5,9 C 93 % 1019,7 hPa 0,0 l/m 2,5 km/h (1 Bft) S-SW 202 4,9 C 5,9 C
24.11.2012 02:41 5,9 C 93 % 1019,9 hPa 0,0 l/m 2,5 km/h (1 Bft) S-SW 202 4,9 C 5,9 C
24.11.2012 02:46 5,9 C 93 % 1020,0 hPa 0,0 l/m 2,5 km/h (1 Bft) S-SW 202 4,9 C 5,9 C
24.11.2012 02:51 5,9 C 93 % 1019,6 hPa 0,0 l/m 2,5 km/h (1 Bft) S-SW 202 4,9 C 5,9 C
24.11.2012 02:56 5,9 C 93 % 1019,8 hPa 0,0 l/m 1,4 km/h (1 Bft) S 180 4,9 C 5,9 C
24.11.2012 03:01 5,9 C 93 % 1019,8 hPa 0,0 l/m 1,1 km/h (1 Bft) S 180 4,9 C 5,9 C
24.11.2012 03:06 5,9 C 93 % 1019,8 hPa 0,0 l/m 5,0 km/h (1 Bft) S 180 4,9 C 5,1 C
24.11.2012 03:11 5,8 C 93 % 1019,7 hPa 0,0 l/m 3,2 km/h (1 Bft) S-SW 202 4,8 C 5,8 C
24.11.2012 03:16 5,8 C 93 % 1019,7 hPa 0,0 l/m 0,0 km/h (0 Bft) S 180 4,8 C 5,8 C
24.11.2012 03:21 5,8 C 93 % 1019,8 hPa 0,0 l/m 0,0 km/h (0 Bft) S 180 4,8 C 5,8 C
24.11.2012 03:26 5,8 C 93 % 1019,8 hPa 0,0 l/m 3,2 km/h (1 Bft) S 180 4,8 C 5,8 C
24.11.2012 03:31 5,8 C 93 % 1019,9 hPa 0,0 l/m 2,5 km/h (1 Bft) S-SW 202 4,8 C 5,8 C
24.11.2012 03:36 5,8 C 93 % 1019,9 hPa 0,0 l/m 1,8 km/h (1 Bft) S-SW 202 4,8 C 5,8 C
24.11.2012 03:41 5,8 C 93 % 1020,0 hPa 0,0 l/m 0,0 km/h (0 Bft) S-SW 202 4,8 C 5,8 C
24.11.2012 03:46 5,8 C 93 % 1020,0 hPa 0,0 l/m 0,0 km/h (0 Bft) S-SW 202 4,8 C 5,8 C
24.11.2012 03:51 5,8 C 93 % 1020,1 hPa 0,0 l/m 0,0 km/h (0 Bft) S-SW 202 4,8 C 5,8 C
24.11.2012 03:56 5,8 C 93 % 1020,2 hPa 0,0 l/m 0,0 km/h (0 Bft) S-SW 202 4,8 C 5,8 C
24.11.2012 04:01 5,8 C 93 % 1020,1 hPa 0,0 l/m 1,4 km/h (1 Bft) S-SW 202 4,8 C 5,8 C
24.11.2012 04:06 5,7 C 93 % 1019,9 hPa 0,0 l/m 1,8 km/h (1 Bft) S-SW 202 4,7 C 5,7 C
24.11.2012 04:11 5,7 C 93 % 1019,9 hPa 0,0 l/m 1,4 km/h (1 Bft) S-SW 202 4,7 C 5,7 C
24.11.2012 04:16 5,6 C 93 % 1020,0 hPa 0,0 l/m 0,0 km/h (0 Bft) S-SW 202 4,6 C 5,6 C
24.11.2012 04:21 5,6 C 93 % 1019,9 hPa 0,0 l/m 0,0 km/h (0 Bft) S-SW 202 4,6 C 5,6 C
24.11.2012 04:26 5,6 C 93 % 1020,0 hPa 0,0 l/m 0,0 km/h (0 Bft) S-SW 202 4,6 C 5,6 C
24.11.2012 04:31 5,6 C 93 % 1019,9 hPa 0,0 l/m 0,0 km/h (0 Bft) S-SW 202 4,6 C 5,6 C
24.11.2012 04:36 5,6 C 93 % 1020,0 hPa 0,0 l/m 0,0 km/h (0 Bft) S-SW 202 4,6 C 5,6 C
24.11.2012 04:41 5,6 C 93 % 1020,1 hPa 0,0 l/m 0,0 km/h (0 Bft) S-SW 202 4,6 C 5,6 C
24.11.2012 04:46 5,6 C 93 % 1020,0 hPa 0,0 l/m 1,1 km/h (1 Bft) S-SW 202 4,6 C 5,6 C
24.11.2012 04:51 5,6 C 93 % 1020,0 hPa 0,0 l/m 0,0 km/h (0 Bft) S-SW 202 4,6 C 5,6 C
24.11.2012 04:56 5,6 C 93 % 1020,0 hPa 0,0 l/m 0,0 km/h (0 Bft) S-SW 202 4,6 C 5,6 C
24.11.2012 05:01 5,6 C 93 % 1020,0 hPa 0,0 l/m 0,0 km/h (0 Bft) S-SW 202 4,6 C 5,6 C
24.11.2012 05:06 5,6 C 93 % 1020,0 hPa 0,0 l/m 0,0 km/h (0 Bft) S-SW 202 4,6 C 5,6 C
24.11.2012 05:11 5,6 C 93 % 1020,0 hPa 0,0 l/m 0,0 km/h (0 Bft) S-SW 202 4,6 C 5,6 C
24.11.2012 05:16 5,6 C 93 % 1020,1 hPa 0,0 l/m 0,0 km/h (0 Bft) S-SW 202 4,6 C 5,6 C
24.11.2012 05:21 5,6 C 93 % 1020,1 hPa 0,0 l/m 0,0 km/h (0 Bft) S-SW 202 4,6 C 5,6 C
24.11.2012 05:26 5,6 C 93 % 1020,1 hPa 0,0 l/m 0,0 km/h (0 Bft) S-SW 202 4,6 C 5,6 C
24.11.2012 05:31 5,6 C 93 % 1020,1 hPa 0,0 l/m 0,0 km/h (0 Bft) S-SW 202 4,6 C 5,6 C
24.11.2012 05:36 5,6 C 93 % 1020,0 hPa 0,0 l/m 0,0 km/h (0 Bft) S-SW 202 4,6 C 5,6 C
24.11.2012 05:41 5,6 C 93 % 1020,0 hPa 0,0 l/m 0,0 km/h (0 Bft) S-SW 202 4,6 C 5,6 C
24.11.2012 05:46 5,6 C 93 % 1020,1 hPa 0,0 l/m 0,0 km/h (0 Bft) S-SW 202 4,6 C 5,6 C
24.11.2012 05:51 5,6 C 93 % 1020,1 hPa 0,0 l/m 0,0 km/h (0 Bft) S-SW 202 4,6 C 5,6 C
24.11.2012 05:56 5,6 C 93 % 1020,0 hPa 0,0 l/m 0,0 km/h (0 Bft) S-SW 202 4,6 C 5,6 C
24.11.2012 06:01 5,6 C 93 % 1020,0 hPa 0,0 l/m 0,0 km/h (0 Bft) S-SW 202 4,6 C 5,6 C
24.11.2012 06:06 5,6 C 93 % 1019,9 hPa 0,0 l/m 0,0 km/h (0 Bft) S-SW 202 4,6 C 5,6 C
24.11.2012 06:11 5,6 C 93 % 1020,1 hPa 0,0 l/m 0,0 km/h (0 Bft) S-SW 202 4,6 C 5,6 C
24.11.2012 06:16 5,6 C 94 % 1020,1 hPa 0,0 l/m 0,0 km/h (0 Bft) S-SW 202 4,7 C 5,6 C
24.11.2012 06:21 5,6 C 94 % 1020,1 hPa 0,0 l/m 0,0 km/h (0 Bft) S-SW 202 4,7 C 5,6 C
24.11.2012 06:26 5,6 C 94 % 1020,1 hPa 0,0 l/m 0,0 km/h (0 Bft) S-SW 202 4,7 C 5,6 C
24.11.2012 06:31 5,7 C 94 % 1020,1 hPa 0,0 l/m 0,0 km/h (0 Bft) S-SW 202 4,8 C 5,7 C
24.11.2012 06:36 5,7 C 94 % 1020,3 hPa 0,0 l/m 0,0 km/h (0 Bft) S-SW 202 4,8 C 5,7 C
24.11.2012 06:41 5,7 C 94 % 1020,0 hPa 0,0 l/m 0,0 km/h (0 Bft) S-SW 202 4,8 C 5,7 C
24.11.2012 06:46 5,8 C 94 % 1020,1 hPa 0,0 l/m 0,0 km/h (0 Bft) S-SW 202 4,9 C 5,8 C
24.11.2012 06:51 5,8 C 94 % 1020,2 hPa 0,0 l/m 1,1 km/h (1 Bft) S-SW 202 4,9 C 5,8 C
24.11.2012 06:56 5,8 C 94 % 1020,3 hPa 0,0 l/m 0,0 km/h (0 Bft) S-SW 202 4,9 C 5,8 C
24.11.2012 07:01 5,8 C 94 % 1020,4 hPa 0,0 l/m 1,1 km/h (1 Bft) S-SW 202 4,9 C 5,8 C
24.11.2012 07:06 5,8 C 94 % 1020,1 hPa 0,0 l/m 0,0 km/h (0 Bft) SO 135 4,9 C 5,8 C
24.11.2012 07:11 5,8 C 94 % 1020,3 hPa 0,0 l/m 0,0 km/h (0 Bft) SO 135 4,9 C 5,8 C
24.11.2012 07:16 5,8 C 94 % 1020,3 hPa 0,0 l/m 0,0 km/h (0 Bft) SO 135 4,9 C 5,8 C
24.11.2012 07:21 5,8 C 94 % 1020,3 hPa 0,0 l/m 0,0 km/h (0 Bft) SO 135 4,9 C 5,8 C
24.11.2012 07:26 5,8 C 94 % 1020,1 hPa 0,0 l/m 0,0 km/h (0 Bft) SO 135 4,9 C 5,8 C
24.11.2012 07:31 5,8 C 94 % 1020,3 hPa 0,0 l/m 2,9 km/h (1 Bft) SO 135 4,9 C 5,8 C
24.11.2012 07:36 5,8 C 94 % 1020,3 hPa 0,0 l/m 0,0 km/h (0 Bft) O-SO 112 4,9 C 5,8 C
24.11.2012 07:41 5,8 C 94 % 1020,3 hPa 0,0 l/m 0,0 km/h (0 Bft) O-SO 112 4,9 C 5,8 C
24.11.2012 07:46 5,8 C 94 % 1020,4 hPa 0,0 l/m 1,4 km/h (1 Bft) O-SO 112 4,9 C 5,8 C
24.11.2012 07:51 5,8 C 94 % 1020,3 hPa 0,0 l/m 0,0 km/h (0 Bft) O-SO 112 4,9 C 5,8 C
24.11.2012 07:56 5,8 C 94 % 1020,5 hPa 0,0 l/m 0,0 km/h (0 Bft) O-SO 112 4,9 C 5,8 C
24.11.2012 08:01 5,8 C 94 % 1020,7 hPa 0,0 l/m 1,4 km/h (1 Bft) O-SO 112 4,9 C 5,8 C
24.11.2012 08:06 5,7 C 94 % 1020,7 hPa 0,0 l/m 2,9 km/h (1 Bft) NO 45 4,8 C 5,7 C
24.11.2012 08:11 5,6 C 94 % 1020,8 hPa 0,0 l/m 1,4 km/h (1 Bft) NO 45 4,7 C 5,6 C
24.11.2012 08:16 5,6 C 94 % 1020,9 hPa 0,0 l/m 0,0 km/h (0 Bft) NO 45 4,7 C 5,6 C
24.11.2012 08:21 5,6 C 94 % 1021,0 hPa 0,0 l/m 1,8 km/h (1 Bft) O 90 4,7 C 5,6 C
24.11.2012 08:26 5,6 C 94 % 1020,9 hPa 0,0 l/m 2,2 km/h (1 Bft) O 90 4,7 C 5,6 C
24.11.2012 08:31 5,6 C 94 % 1021,0 hPa 0,0 l/m 1,1 km/h (1 Bft) NO 45 4,7 C 5,6 C
24.11.2012 08:36 5,6 C 94 % 1021,0 hPa 0,0 l/m 3,6 km/h (1 Bft) O-NO 67 4,7 C 5,6 C
24.11.2012 08:41 5,6 C 94 % 1021,1 hPa 0,0 l/m 2,2 km/h (1 Bft) NO 45 4,7 C 5,6 C
24.11.2012 08:46 5,5 C 94 % 1020,9 hPa 0,0 l/m 0,0 km/h (0 Bft) N-NO 22 4,6 C 5,5 C
24.11.2012 08:51 5,5 C 94 % 1021,1 hPa 0,0 l/m 0,0 km/h (0 Bft) NO 45 4,6 C 5,5 C
24.11.2012 08:56 5,5 C 94 % 1021,0 hPa 0,0 l/m 2,5 km/h (1 Bft) NO 45 4,6 C 5,5 C
24.11.2012 09:01 5,5 C 94 % 1021,1 hPa 0,0 l/m 0,0 km/h (0 Bft) O-NO 67 4,6 C 5,5 C
24.11.2012 09:06 5,6 C 94 % 1021,1 hPa 0,0 l/m 3,2 km/h (1 Bft) NO 45 4,7 C 5,6 C
24.11.2012 09:11 5,6 C 94 % 1021,1 hPa 0,0 l/m 1,4 km/h (1 Bft) NO 45 4,7 C 5,6 C
24.11.2012 09:16 5,6 C 94 % 1021,2 hPa 0,0 l/m 4,0 km/h (1 Bft) NO 45 4,7 C 5,6 C
24.11.2012 09:21 5,6 C 94 % 1021,3 hPa 0,0 l/m 4,0 km/h (1 Bft) O-NO 67 4,7 C 5,6 C
24.11.2012 09:26 5,5 C 94 % 1021,3 hPa 0,0 l/m 2,2 km/h (1 Bft) NO 45 4,6 C 5,5 C
24.11.2012 09:31 5,5 C 94 % 1021,2 hPa 0,0 l/m 0,0 km/h (0 Bft) NO 45 4,6 C 5,5 C
24.11.2012 09:36 5,6 C 94 % 1021,2 hPa 0,0 l/m 1,4 km/h (1 Bft) NO 45 4,7 C 5,6 C
24.11.2012 09:41 5,6 C 94 % 1021,4 hPa 0,0 l/m 4,7 km/h (1 Bft) O-NO 67 4,7 C 4,9 C
24.11.2012 09:46 5,6 C 94 % 1021,3 hPa 0,0 l/m 1,4 km/h (1 Bft) NO 45 4,7 C 5,6 C
24.11.2012 09:51 5,6 C 94 % 1021,4 hPa 0,0 l/m 4,3 km/h (1 Bft) O-NO 67 4,7 C 5,6 C
24.11.2012 09:56 5,6 C 95 % 1021,5 hPa 0,0 l/m 0,0 km/h (0 Bft) NO 45 4,9 C 5,6 C
24.11.2012 10:01 5,6 C 95 % 1021,5 hPa 0,0 l/m 2,5 km/h (1 Bft) O-NO 67 4,9 C 5,6 C
24.11.2012 10:06 5,6 C 95 % 1021,5 hPa 0,0 l/m 2,5 km/h (1 Bft) O-NO 67 4,9 C 5,6 C
24.11.2012 10:11 5,6 C 95 % 1021,5 hPa 0,0 l/m 2,2 km/h (1 Bft) O-NO 67 4,9 C 5,6 C
24.11.2012 10:16 5,6 C 95 % 1021,5 hPa 0,0 l/m 5,0 km/h (1 Bft) NO 45 4,9 C 4,8 C
24.11.2012 10:21 5,6 C 95 % 1021,5 hPa 0,0 l/m 2,5 km/h (1 Bft) O-NO 67 4,9 C 5,6 C
24.11.2012 10:26 5,6 C 95 % 1021,6 hPa 0,0 l/m 0,0 km/h (0 Bft) NO 45 4,9 C 5,6 C
24.11.2012 10:31 5,6 C 95 % 1021,5 hPa 0,0 l/m 2,2 km/h (1 Bft) O-SO 112 4,9 C 5,6 C
24.11.2012 10:36 5,6 C 95 % 1021,5 hPa 0,0 l/m 2,2 km/h (1 Bft) SO 135 4,9 C 5,6 C
24.11.2012 10:41 5,6 C 95 % 1021,5 hPa 0,0 l/m 0,0 km/h (0 Bft) O-SO 112 4,9 C 5,6 C
24.11.2012 10:46 5,7 C 95 % 1021,4 hPa 0,0 l/m 1,8 km/h (1 Bft) O-SO 112 5,0 C 5,7 C
24.11.2012 10:51 5,7 C 95 % 1021,7 hPa 0,0 l/m 2,2 km/h (1 Bft) SO 135 5,0 C 5,7 C
24.11.2012 10:56 5,8 C 95 % 1021,6 hPa 0,0 l/m 0,0 km/h (0 Bft) SO 135 5,1 C 5,8 C
24.11.2012 11:01 5,8 C 95 % 1021,6 hPa 0,0 l/m 0,0 km/h (0 Bft) SO 135 5,1 C 5,8 C
24.11.2012 11:06 5,8 C 95 % 1021,6 hPa 0,0 l/m 2,5 km/h (1 Bft) O-SO 112 5,1 C 5,8 C
24.11.2012 11:11 5,8 C 95 % 1021,6 hPa 0,0 l/m 1,4 km/h (1 Bft) O-NO 67 5,1 C 5,8 C
24.11.2012 11:16 5,8 C 95 % 1021,6 hPa 0,0 l/m 1,4 km/h (1 Bft) O-NO 67 5,1 C 5,8 C
24.11.2012 11:21 5,8 C 95 % 1021,6 hPa 0,0 l/m 1,8 km/h (1 Bft) O-NO 67 5,1 C 5,8 C
24.11.2012 11:26 5,6 C 95 % 1021,6 hPa 0,0 l/m 2,9 km/h (1 Bft) O-SO 112 4,9 C 5,6 C
24.11.2012 11:31 5,6 C 94 % 1021,6 hPa 0,0 l/m 4,3 km/h (1 Bft) O 90 4,7 C 5,6 C
24.11.2012 11:36 5,7 C 95 % 1021,6 hPa 0,0 l/m 7,2 km/h (2 Bft) O-NO 67 5,0 C 4,2 C
24.11.2012 11:41 5,7 C 94 % 1021,7 hPa 0,0 l/m 1,1 km/h (1 Bft) NO 45 4,8 C 5,7 C
24.11.2012 11:46 5,8 C 94 % 1021,7 hPa 0,0 l/m 5,4 km/h (1 Bft) O-SO 112 4,9 C 4,8 C
24.11.2012 11:51 5,8 C 94 % 1021,5 hPa 0,0 l/m 4,0 km/h (1 Bft) O-SO 112 4,9 C 5,8 C
24.11.2012 11:56 5,8 C 94 % 1021,5 hPa 0,0 l/m 1,1 km/h (1 Bft) O-SO 112 4,9 C 5,8 C
24.11.2012 12:01 5,8 C 94 % 1021,5 hPa 0,0 l/m 4,0 km/h (1 Bft) O-NO 67 4,9 C 5,8 C
24.11.2012 12:06 5,8 C 94 % 1021,6 hPa 0,0 l/m 2,5 km/h (1 Bft) O 90 4,9 C 5,8 C
24.11.2012 12:11 5,8 C 94 % 1021,5 hPa 0,0 l/m 1,1 km/h (1 Bft) O 90 4,9 C 5,8 C
24.11.2012 12:16 5,8 C 94 % 1021,5 hPa 0,0 l/m 0,0 km/h (0 Bft) O-SO 112 4,9 C 5,8 C
24.11.2012 12:21 5,9 C 94 % 1021,5 hPa 0,0 l/m 2,5 km/h (1 Bft) O-SO 112 5,0 C 5,9 C
24.11.2012 12:26 5,9 C 94 % 1021,4 hPa 0,0 l/m 3,2 km/h (1 Bft) SO 135 5,0 C 5,9 C
24.11.2012 12:31 5,9 C 94 % 1021,5 hPa 0,0 l/m 1,4 km/h (1 Bft) SO 135 5,0 C 5,9 C
24.11.2012 12:36 5,9 C 94 % 1021,5 hPa 0,0 l/m 3,2 km/h (1 Bft) O-SO 112 5,0 C 5,9 C
24.11.2012 12:41 5,9 C 94 % 1021,4 hPa 0,0 l/m 1,1 km/h (1 Bft) O-SO 112 5,0 C 5,9 C
24.11.2012 12:46 5,9 C 94 % 1021,4 hPa 0,0 l/m 3,6 km/h (1 Bft) O-SO 112 5,0 C 5,9 C
24.11.2012 12:51 5,9 C 94 % 1021,4 hPa 0,0 l/m 4,0 km/h (1 Bft) O-SO 112 5,0 C 5,9 C
24.11.2012 12:56 5,9 C 94 % 1021,4 hPa 0,0 l/m 1,8 km/h (1 Bft) O-NO 67 5,0 C 5,9 C
24.11.2012 13:01 5,9 C 94 % 1021,5 hPa 0,0 l/m 2,5 km/h (1 Bft) NO 45 5,0 C 5,9 C
24.11.2012 13:06 5,9 C 94 % 1021,5 hPa 0,0 l/m 2,5 km/h (1 Bft) NO 45 5,0 C 5,9 C
24.11.2012 13:11 5,9 C 94 % 1021,4 hPa 0,0 l/m 2,9 km/h (1 Bft) O 90 5,0 C 5,9 C
24.11.2012 13:16 5,9 C 94 % 1021,3 hPa 0,0 l/m 1,8 km/h (1 Bft) SO 135 5,0 C 5,9 C
24.11.2012 13:21 5,9 C 93 % 1021,3 hPa 0,0 l/m 4,0 km/h (1 Bft) O-NO 67 4,9 C 5,9 C
24.11.2012 13:26 5,9 C 93 % 1021,4 hPa 0,0 l/m 3,2 km/h (1 Bft) O-NO 67 4,9 C 5,9 C
24.11.2012 13:31 5,9 C 93 % 1021,4 hPa 0,0 l/m 2,5 km/h (1 Bft) O-SO 112 4,9 C 5,9 C
24.11.2012 13:36 5,9 C 93 % 1021,4 hPa 0,0 l/m 2,9 km/h (1 Bft) O 90 4,9 C 5,9 C
24.11.2012 13:41 5,9 C 93 % 1021,5 hPa 0,0 l/m 6,5 km/h (2 Bft) O 90 4,9 C 4,6 C
24.11.2012 13:46 5,9 C 93 % 1021,6 hPa 0,0 l/m 2,5 km/h (1 Bft) O-SO 112 4,9 C 5,9 C
24.11.2012 13:51 5,9 C 93 % 1021,5 hPa 0,0 l/m 6,5 km/h (2 Bft) SO 135 4,9 C 4,6 C
24.11.2012 13:56 5,8 C 93 % 1021,4 hPa 0,0 l/m 2,2 km/h (1 Bft) SO 135 4,8 C 5,8 C
24.11.2012 14:01 5,9 C 93 % 1021,5 hPa 0,0 l/m 4,7 km/h (1 Bft) O-SO 112 4,9 C 5,2 C
24.11.2012 14:06 5,9 C 93 % 1021,4 hPa 0,0 l/m 2,5 km/h (1 Bft) SO 135 4,9 C 5,9 C
24.11.2012 14:11 5,9 C 93 % 1021,4 hPa 0,0 l/m 0,0 km/h (0 Bft) SO 135 4,9 C 5,9 C
24.11.2012 14:16 5,9 C 93 % 1021,3 hPa 0,0 l/m 4,0 km/h (1 Bft) SO 135 4,9 C 5,9 C
24.11.2012 14:21 5,9 C 93 % 1021,4 hPa 0,0 l/m 4,7 km/h (1 Bft) SO 135 4,9 C 5,2 C
24.11.2012 14:26 5,9 C 93 % 1021,3 hPa 0,0 l/m 3,6 km/h (1 Bft) O-SO 112 4,9 C 5,9 C
24.11.2012 14:31 5,9 C 93 % 1021,3 hPa 0,0 l/m 3,6 km/h (1 Bft) O 90 4,9 C 5,9 C
24.11.2012 14:36 6,0 C 93 % 1021,2 hPa 0,0 l/m 3,6 km/h (1 Bft) O-SO 112 5,0 C 6,0 C
24.11.2012 14:41 6,0 C 93 % 1021,3 hPa 0,0 l/m 4,3 km/h (1 Bft) O-SO 112 5,0 C 6,0 C
24.11.2012 14:46 6,0 C 93 % 1021,2 hPa 0,0 l/m 0,0 km/h (0 Bft) O-SO 112 5,0 C 6,0 C
24.11.2012 14:51 5,9 C 93 % 1021,4 hPa 0,0 l/m 0,0 km/h (0 Bft) O-SO 112 4,9 C 5,9 C
24.11.2012 14:56 5,9 C 93 % 1021,3 hPa 0,0 l/m 0,0 km/h (0 Bft) O-SO 112 4,9 C 5,9 C
24.11.2012 15:01 6,0 C 93 % 1021,4 hPa 0,0 l/m 0,0 km/h (0 Bft) O-SO 112 5,0 C 6,0 C
24.11.2012 15:06 5,9 C 93 % 1021,2 hPa 0,0 l/m 4,0 km/h (1 Bft) SO 135 4,9 C 5,9 C
24.11.2012 15:11 5,9 C 93 % 1021,5 hPa 0,0 l/m 0,0 km/h (0 Bft) O-SO 112 4,9 C 5,9 C
24.11.2012 15:16 5,9 C 93 % 1021,4 hPa 0,0 l/m 3,2 km/h (1 Bft) O-SO 112 4,9 C 5,9 C
24.11.2012 15:21 5,9 C 93 % 1021,5 hPa 0,0 l/m 2,9 km/h (1 Bft) O-SO 112 4,9 C 5,9 C
24.11.2012 15:26 5,9 C 93 % 1021,4 hPa 0,0 l/m 4,3 km/h (1 Bft) O-NO 67 4,9 C 5,9 C
24.11.2012 15:31 5,9 C 93 % 1021,5 hPa 0,0 l/m 4,0 km/h (1 Bft) O-SO 112 4,9 C 5,9 C
24.11.2012 15:36 5,8 C 93 % 1021,4 hPa 0,0 l/m 3,6 km/h (1 Bft) O-SO 112 4,8 C 5,8 C
24.11.2012 15:41 5,8 C 93 % 1021,4 hPa 0,0 l/m 0,0 km/h (0 Bft) O-SO 112 4,8 C 5,8 C
24.11.2012 15:46 5,8 C 93 % 1021,5 hPa 0,0 l/m 2,5 km/h (1 Bft) O-NO 67 4,8 C 5,8 C
24.11.2012 15:51 5,7 C 94 % 1021,5 hPa 0,0 l/m 2,2 km/h (1 Bft) O-NO 67 4,8 C 5,7 C
24.11.2012 15:56 5,6 C 94 % 1021,5 hPa 0,0 l/m 4,7 km/h (1 Bft) O-NO 67 4,7 C 4,9 C
24.11.2012 16:01 5,5 C 94 % 1021,5 hPa 0,0 l/m 3,6 km/h (1 Bft) O-SO 112 4,6 C 5,5 C
24.11.2012 16:06 5,5 C 94 % 1021,5 hPa 0,0 l/m 2,9 km/h (1 Bft) O-NO 67 4,6 C 5,5 C
24.11.2012 16:11 5,4 C 94 % 1021,4 hPa 0,0 l/m 5,8 km/h (2 Bft) O 90 4,5 C 4,2 C
24.11.2012 16:16 5,4 C 94 % 1021,4 hPa 0,0 l/m 6,5 km/h (2 Bft) O-SO 112 4,5 C 4,0 C
24.11.2012 16:21 5,3 C 94 % 1021,3 hPa 0,0 l/m 9,7 km/h (2 Bft) O 90 4,4 C 3,1 C
24.11.2012 16:26 5,3 C 94 % 1021,3 hPa 0,0 l/m 7,6 km/h (2 Bft) O-NO 67 4,4 C 3,6 C
24.11.2012 16:31 5,3 C 94 % 1021,4 hPa 0,0 l/m 4,7 km/h (1 Bft) O-SO 112 4,4 C 4,5 C
24.11.2012 16:36 5,2 C 94 % 1021,4 hPa 0,0 l/m 2,5 km/h (1 Bft) NO 45 4,3 C 5,2 C
24.11.2012 16:41 5,1 C 94 % 1021,4 hPa 0,0 l/m 3,2 km/h (1 Bft) O-NO 67 4,2 C 5,1 C
24.11.2012 16:46 5,0 C 94 % 1021,4 hPa 0,0 l/m 7,6 km/h (2 Bft) NO 45 4,1 C 3,2 C
24.11.2012 16:51 4,9 C 94 % 1021,4 hPa 0,0 l/m 4,7 km/h (1 Bft) NO 45 4,0 C 4,1 C
24.11.2012 16:56 4,8 C 94 % 1021,2 hPa 0,0 l/m 6,1 km/h (2 Bft) O-NO 67 3,9 C 3,5 C
24.11.2012 17:01 4,6 C 94 % 1021,2 hPa 0,0 l/m 7,2 km/h (2 Bft) O-SO 112 3,7 C 2,9 C
24.11.2012 17:06 4,6 C 94 % 1021,2 hPa 0,0 l/m 2,5 km/h (1 Bft) O-NO 67 3,7 C 4,6 C
24.11.2012 17:11 4,6 C 94 % 1021,2 hPa 0,0 l/m 13,3 km/h (3 Bft) O-NO 67 3,7 C 1,5 C
24.11.2012 17:16 4,5 C 94 % 1021,2 hPa 0,0 l/m 14,0 km/h (3 Bft) O-SO 112 3,6 C 1,3 C
24.11.2012 17:21 4,5 C 94 % 1021,2 hPa 0,0 l/m 13,7 km/h (3 Bft) O-NO 67 3,6 C 1,3 C
24.11.2012 17:26 4,4 C 94 % 1021,3 hPa 0,0 l/m 7,6 km/h (2 Bft) O-SO 112 3,5 C 2,5 C
24.11.2012 17:31 4,4 C 94 % 1021,3 hPa 0,0 l/m 10,1 km/h (2 Bft) O-NO 67 3,5 C 1,9 C
24.11.2012 17:36 4,4 C 94 % 1021,2 hPa 0,0 l/m 4,3 km/h (1 Bft) O 90 3,5 C 4,4 C
24.11.2012 17:41 4,4 C 94 % 1021,1 hPa 0,0 l/m 4,3 km/h (1 Bft) O-SO 112 3,5 C 4,4 C
24.11.2012 17:46 4,4 C 94 % 1021,1 hPa 0,0 l/m 1,8 km/h (1 Bft) O-SO 112 3,5 C 4,4 C
24.11.2012 17:51 4,4 C 94 % 1021,1 hPa 0,0 l/m 11,9 km/h (2 Bft) O-SO 112 3,5 C 1,5 C
24.11.2012 17:56 4,2 C 94 % 1021,2 hPa 0,0 l/m 7,2 km/h (2 Bft) NO 45 3,3 C 2,4 C
24.11.2012 18:01 4,1 C 94 % 1021,1 hPa 0,0 l/m 11,2 km/h (2 Bft) O 90 3,2 C 1,3 C
24.11.2012 18:06 4,1 C 94 % 1021,2 hPa 0,0 l/m 8,6 km/h (2 Bft) SO 135 3,2 C 1,9 C
24.11.2012 18:11 4,1 C 94 % 1021,1 hPa 0,0 l/m 19,8 km/h (3 Bft) SO 135 3,2 C -0,0 C
24.11.2012 18:16 4,1 C 94 % 1021,1 hPa 0,0 l/m 7,9 km/h (2 Bft) O-NO 67 3,2 C 2,1 C
24.11.2012 18:21 4,1 C 94 % 1021,0 hPa 0,0 l/m 9,4 km/h (2 Bft) NO 45 3,2 C 1,7 C
24.11.2012 18:26 4,1 C 94 % 1021,1 hPa 0,0 l/m 12,6 km/h (3 Bft) O 90 3,2 C 1,1 C
24.11.2012 18:31 4,0 C 94 % 1021,1 hPa 0,0 l/m 15,5 km/h (3 Bft) O-SO 112 3,1 C 0,4 C
24.11.2012 18:36 4,1 C 94 % 1021,1 hPa 0,0 l/m 9,0 km/h (2 Bft) O-SO 112 3,2 C 1,8 C
24.11.2012 18:41 3,9 C 94 % 1021,0 hPa 0,0 l/m 8,3 km/h (2 Bft) SO 135 3,0 C 1,8 C
24.11.2012 18:46 4,0 C 94 % 1021,0 hPa 0,0 l/m 6,8 km/h (2 Bft) O-SO 112 3,1 C 2,3 C
24.11.2012 18:51 4,0 C 95 % 1021,0 hPa 0,0 l/m 10,1 km/h (2 Bft) O-SO 112 3,3 C 1,4 C
24.11.2012 18:56 4,1 C 95 % 1021,0 hPa 0,0 l/m 5,0 km/h (1 Bft) SO 135 3,4 C 3,1 C
24.11.2012 19:01 4,1 C 95 % 1021,0 hPa 0,0 l/m 6,5 km/h (2 Bft) O-SO 112 3,4 C 2,5 C
24.11.2012 19:06 4,1 C 95 % 1021,1 hPa 0,0 l/m 6,1 km/h (2 Bft) SO 135 3,4 C 2,7 C
24.11.2012 19:11 4,1 C 95 % 1021,1 hPa 0,0 l/m 3,6 km/h (1 Bft) O-NO 67 3,4 C 4,1 C
24.11.2012 19:16 4,1 C 95 % 1021,1 hPa 0,0 l/m 11,2 km/h (2 Bft) O-SO 112 3,4 C 1,3 C
24.11.2012 19:21 4,1 C 95 % 1021,1 hPa 0,0 l/m 9,4 km/h (2 Bft) O-SO 112 3,4 C 1,7 C
24.11.2012 19:26 4,1 C 95 % 1021,0 hPa 0,0 l/m 9,7 km/h (2 Bft) O-SO 112 3,4 C 1,7 C
24.11.2012 19:31 4,1 C 95 % 1021,0 hPa 0,0 l/m 6,5 km/h (2 Bft) O-SO 112 3,4 C 2,5 C
24.11.2012 19:36 4,1 C 95 % 1021,0 hPa 0,0 l/m 3,2 km/h (1 Bft) O 90 3,4 C 4,1 C
24.11.2012 19:41 4,1 C 95 % 1020,8 hPa 0,0 l/m 4,7 km/h (1 Bft) O-SO 112 3,4 C 3,2 C
24.11.2012 19:46 4,2 C 95 % 1020,9 hPa 0,0 l/m 2,5 km/h (1 Bft) O-SO 112 3,5 C 4,2 C
24.11.2012 19:51 4,3 C 95 % 1020,9 hPa 0,0 l/m 9,7 km/h (2 Bft) O-SO 112 3,6 C 1,9 C
24.11.2012 19:56 4,3 C 95 % 1021,0 hPa 0,0 l/m 4,7 km/h (1 Bft) SO 135 3,6 C 3,4 C
24.11.2012 20:01 4,4 C 95 % 1020,9 hPa 0,0 l/m 10,1 km/h (2 Bft) O-SO 112 3,7 C 1,9 C
24.11.2012 20:06 4,4 C 95 % 1020,8 hPa 0,0 l/m 4,0 km/h (1 Bft) O-NO 67 3,7 C 4,4 C
24.11.2012 20:11 4,5 C 95 % 1020,9 hPa 0,0 l/m 17,3 km/h (3 Bft) SO 135 3,8 C 0,8 C
24.11.2012 20:16 4,5 C 95 % 1020,8 hPa 0,0 l/m 9,0 km/h (2 Bft) O-SO 112 3,8 C 2,3 C
24.11.2012 20:21 4,6 C 95 % 1020,5 hPa 0,0 l/m 7,6 km/h (2 Bft) O-NO 67 3,9 C 2,8 C
24.11.2012 20:26 4,6 C 95 % 1020,6 hPa 0,0 l/m 6,5 km/h (2 Bft) O-SO 112 3,9 C 3,1 C
24.11.2012 20:31 4,6 C 95 % 1020,4 hPa 0,0 l/m 7,9 km/h (2 Bft) SO 135 3,9 C 2,7 C
24.11.2012 20:36 4,7 C 95 % 1020,5 hPa 0,0 l/m 8,6 km/h (2 Bft) SO 135 4,0 C 2,6 C
24.11.2012 20:41 4,7 C 95 % 1020,4 hPa 0,0 l/m 3,6 km/h (1 Bft) O-SO 112 4,0 C 4,7 C
24.11.2012 20:46 4,7 C 95 % 1020,4 hPa 0,0 l/m 4,7 km/h (1 Bft) O-SO 112 4,0 C 3,9 C
24.11.2012 20:51 4,8 C 95 % 1020,3 hPa 0,0 l/m 8,6 km/h (2 Bft) SO 135 4,1 C 2,7 C
24.11.2012 20:56 4,8 C 95 % 1020,4 hPa 0,0 l/m 3,6 km/h (1 Bft) SO 135 4,1 C 4,8 C
24.11.2012 21:01 4,8 C 95 % 1020,3 hPa 0,0 l/m 3,6 km/h (1 Bft) O-SO 112 4,1 C 4,8 C
24.11.2012 21:06 4,8 C 95 % 1020,2 hPa 0,0 l/m 6,5 km/h (2 Bft) O-SO 112 4,1 C 3,3 C
24.11.2012 21:11 4,8 C 95 % 1020,1 hPa 0,0 l/m 8,6 km/h (2 Bft) SO 135 4,1 C 2,7 C
24.11.2012 21:16 4,8 C 95 % 1020,0 hPa 0,0 l/m 4,7 km/h (1 Bft) SO 135 4,1 C 4,0 C
24.11.2012 21:21 4,8 C 95 % 1019,9 hPa 0,0 l/m 10,4 km/h (2 Bft) O-SO 112 4,1 C 2,3 C
24.11.2012 21:26 4,8 C 95 % 1019,9 hPa 0,0 l/m 7,2 km/h (2 Bft) O-SO 112 4,1 C 3,1 C
24.11.2012 21:31 4,8 C 95 % 1019,9 hPa 0,0 l/m 7,2 km/h (2 Bft) O 90 4,1 C 3,1 C
24.11.2012 21:36 4,8 C 95 % 1019,9 hPa 0,0 l/m 6,1 km/h (2 Bft) SO 135 4,1 C 3,5 C
24.11.2012 21:41 4,8 C 95 % 1020,0 hPa 0,0 l/m 3,6 km/h (1 Bft) O-SO 112 4,1 C 4,8 C
24.11.2012 21:46 4,8 C 95 % 1019,9 hPa 0,0 l/m 6,5 km/h (2 Bft) O-SO 112 4,1 C 3,3 C
24.11.2012 21:51 4,8 C 95 % 1019,8 hPa 0,0 l/m 5,8 km/h (2 Bft) O-SO 112 4,1 C 3,6 C
24.11.2012 21:56 4,8 C 94 % 1019,7 hPa 0,0 l/m 8,3 km/h (2 Bft) O-SO 112 3,9 C 2,8 C
24.11.2012 22:01 4,8 C 94 % 1019,7 hPa 0,0 l/m 2,5 km/h (1 Bft) O-NO 67 3,9 C 4,8 C
24.11.2012 22:06 4,8 C 94 % 1019,7 hPa 0,0 l/m 4,0 km/h (1 Bft) O-NO 67 3,9 C 4,8 C
24.11.2012 22:11 4,8 C 94 % 1019,6 hPa 0,0 l/m 4,3 km/h (1 Bft) O-SO 112 3,9 C 4,8 C
24.11.2012 22:16 4,8 C 94 % 1019,5 hPa 0,0 l/m 5,0 km/h (1 Bft) O-SO 112 3,9 C 3,9 C
24.11.2012 22:21 4,8 C 94 % 1019,5 hPa 0,0 l/m 7,6 km/h (2 Bft) S-SO 157 3,9 C 3,0 C
24.11.2012 22:26 4,8 C 94 % 1019,4 hPa 0,0 l/m 5,0 km/h (1 Bft) O-SO 112 3,9 C 3,9 C
24.11.2012 22:31 4,8 C 94 % 1019,4 hPa 0,0 l/m 5,0 km/h (1 Bft) O-SO 112 3,9 C 3,9 C
24.11.2012 22:36 4,8 C 94 % 1019,5 hPa 0,0 l/m 7,2 km/h (2 Bft) O-NO 67 3,9 C 3,1 C
24.11.2012 22:41 4,8 C 94 % 1019,4 hPa 0,5 l/m 9,0 km/h (2 Bft) O-SO 112 3,9 C 2,6 C
24.11.2012 22:46 4,8 C 94 % 1019,3 hPa 0,0 l/m 5,4 km/h (1 Bft) SO 135 3,9 C 3,7 C
24.11.2012 22:51 4,9 C 94 % 1019,4 hPa 0,0 l/m 7,6 km/h (2 Bft) SO 135 4,0 C 3,1 C
24.11.2012 22:56 4,9 C 94 % 1019,3 hPa 0,0 l/m 9,4 km/h (2 Bft) NO 45 4,0 C 2,7 C
24.11.2012 23:01 4,9 C 94 % 1019,3 hPa 0,0 l/m 7,2 km/h (2 Bft) O-SO 112 4,0 C 3,2 C
24.11.2012 23:06 4,9 C 94 % 1019,0 hPa 0,0 l/m 7,6 km/h (2 Bft) O-NO 67 4,0 C 3,1 C
24.11.2012 23:11 4,9 C 94 % 1019,0 hPa 0,0 l/m 5,0 km/h (1 Bft) O-NO 67 4,0 C 4,0 C
24.11.2012 23:16 4,9 C 94 % 1019,1 hPa 0,0 l/m 7,6 km/h (2 Bft) O 90 4,0 C 3,1 C
24.11.2012 23:21 4,9 C 94 % 1018,9 hPa 0,0 l/m 14,0 km/h (3 Bft) SO 135 4,0 C 1,8 C
24.11.2012 23:26 4,9 C 94 % 1018,8 hPa 0,0 l/m 7,9 km/h (2 Bft) O-SO 112 4,0 C 3,0 C
24.11.2012 23:31 4,9 C 94 % 1018,6 hPa 0,0 l/m 8,6 km/h (2 Bft) O-SO 112 4,0 C 2,9 C
24.11.2012 23:36 4,9 C 94 % 1018,6 hPa 0,0 l/m 5,4 km/h (1 Bft) O 90 4,0 C 3,8 C
24.11.2012 23:41 4,9 C 94 % 1018,5 hPa 0,0 l/m 3,2 km/h (1 Bft) O-SO 112 4,0 C 4,9 C
24.11.2012 23:46 4,9 C 94 % 1018,6 hPa 0,0 l/m 10,8 km/h (2 Bft) O 90 4,0 C 2,4 C
24.11.2012 23:51 4,9 C 94 % 1018,4 hPa 0,0 l/m 8,3 km/h (2 Bft) O-NO 67 4,0 C 2,9 C
24.11.2012 23:56 5,0 C 94 % 1018,3 hPa 0,0 l/m 7,9 km/h (2 Bft) O-SO 112 4,1 C 3,2 C
_ Min-Zeit 18:41 00:01 23:56 - 00:56 - - 18:41 18:11
Minimum _ 3,9 C 93 % 1018,3 hPa - 0,0 km/h (0 Bft) - - 3,0 C -0,0 C
_ Max-Zeit 14:36 09:56 10:51 22:41 18:11 - - 10:56 14:36
Maximum _ 6,0 C 95 % 1021,7 hPa 0,5 l/m 19,8 km/h
SO (3 Bft)
- - 5,1 C 6,0 C
Durchschnitt _ 5,4 C 94 % 1020,6 hPa #0,5 l/m 3,8 km/h (1 Bft) O-SO - 4,5 C 4,8 C
(c) by David Heller